Time;durP1;ratioP1;P1;durP2;ratioP2;P2;SDS_P1;SDS_P2;PMS_P1;PMS_P2;Temp;Humidity;BMP_temperature;BMP_pressure;BME280_temperature;BME280_humidity;BME280_pressure;Samples;Min_cycle;Max_cycle;Signal;HPM_P1;HPM_P2
2022/03/01 00:01:10;;;;;;;10.70;6.38;;;;;;;;;;5054408;28;20067;-86
2022/03/01 00:03:36;;;;;;;11.20;7.28;;;;;;;;;;5037502;28;20017;-86
2022/03/01 00:06:02;;;;;;;11.20;6.72;;;;;;;;;;5055206;28;20083;-86
2022/03/01 00:08:28;;;;;;;12.85;7.07;;;;;;;;;;5035305;28;20017;-86
2022/03/01 00:10:54;;;;;;;10.23;6.80;;;;;;;;;;5034760;28;20553;-86
2022/03/01 00:13:20;;;;;;;12.02;7.03;;;;;;;;;;5035104;28;20116;-87
2022/03/01 00:15:46;;;;;;;12.50;7.38;;;;;;;;;;5034747;28;20033;-86
2022/03/01 00:18:12;;;;;;;14.23;8.00;;;;;;;;;;5035174;28;20025;-86
2022/03/01 00:20:38;;;;;;;13.23;7.97;;;;;;;;;;5053818;28;20103;-85
2022/03/01 00:23:04;;;;;;;13.95;8.05;;;;;;;;;;5054343;28;20059;-86
2022/03/01 00:25:30;;;;;;;14.15;7.68;;;;;;;;;;5035648;28;20101;-86
2022/03/01 00:27:56;;;;;;;13.20;7.63;;;;;;;;;;5036070;28;20060;-86
2022/03/01 00:30:23;;;;;;;14.15;8.18;;;;;;;;;;5053258;28;20392;-86
2022/03/01 00:32:49;;;;;;;20.67;10.48;;;;;;;;;;5035498;28;20024;-86
2022/03/01 00:35:15;;;;;;;19.20;10.32;;;;;;;;;;5035239;28;20151;-86
2022/03/01 00:37:41;;;;;;;20.05;10.48;;;;;;;;;;5053430;28;20067;-86
2022/03/01 00:40:08;;;;;;;18.55;10.25;;;;;;;;;;5035426;28;20020;-86
2022/03/01 00:42:34;;;;;;;13.85;7.43;;;;;;;;;;5035274;28;20025;-86
2022/03/01 00:45:01;;;;;;;15.10;7.60;;;;;;;;;;5023801;28;20045;-86
2022/03/01 00:47:27;;;;;;;13.80;7.45;;;;;;;;;;5049702;28;20091;-85
2022/03/01 00:49:53;;;;;;;11.63;7.13;;;;;;;;;;5052075;28;20480;-86
2022/03/01 00:52:19;;;;;;;13.80;7.90;;;;;;;;;;5051652;28;20104;-86
2022/03/01 00:54:45;;;;;;;14.02;7.97;;;;;;;;;;5053496;28;20484;-84
2022/03/01 00:57:12;;;;;;;13.32;7.78;;;;;;;;;;5036927;28;20417;-84
2022/03/01 00:59:38;;;;;;;18.27;9.30;;;;;;;;;;5037025;28;20025;-84
2022/03/01 01:02:04;;;;;;;13.32;7.22;;;;;;;;;;5036335;28;20029;-84
2022/03/01 01:04:30;;;;;;;11.57;7.22;;;;;;;;;;5055589;28;20047;-84
2022/03/01 01:06:56;;;;;;;13.75;7.90;;;;;;;;;;5055033;28;20481;-84
2022/03/01 01:09:22;;;;;;;12.75;6.70;;;;;;;;;;5037525;28;20025;-84
2022/03/01 01:11:48;;;;;;;12.65;7.03;;;;;;;;;;5056479;28;20029;-85
2022/03/01 01:14:14;;;;;;;11.75;7.13;;;;;;;;;;5061665;28;20047;-85
2022/03/01 01:16:40;;;;;;;13.88;7.03;;;;;;;;;;5048908;28;20025;-85
2022/03/01 01:19:06;;;;;;;12.27;8.18;;;;;;;;;;5065813;28;20031;-85
2022/03/01 01:24:18;;;;;;;10.88;7.38;;;;;;;;;;5074525;28;20101;-85
2022/03/01 01:26:44;;;;;;;12.27;7.03;;;;;;;;;;5045946;28;20037;-86
2022/03/01 01:29:10;;;;;;;14.20;7.03;;;;;;;;;;5037077;28;20074;-87
2022/03/01 01:31:36;;;;;;;11.75;7.20;;;;;;;;;;5053597;28;20025;-87
2022/03/01 01:34:02;;;;;;;13.48;7.68;;;;;;;;;;5034636;28;20037;-87
2022/03/01 01:36:29;;;;;;;13.48;8.43;;;;;;;;;;5035215;28;20033;-87
2022/03/01 01:38:55;;;;;;;14.80;8.90;;;;;;;;;;5053155;28;20032;-86
2022/03/01 01:41:21;;;;;;;15.00;8.48;;;;;;;;;;5051357;28;20025;-86
2022/03/01 01:43:47;;;;;;;14.90;8.85;;;;;;;;;;5051717;28;20098;-86
2022/03/01 01:46:15;;;;;;;15.77;8.85;;;;;;;;;;5051168;28;20389;-85
2022/03/01 01:48:41;;;;;;;16.35;9.55;;;;;;;;;;5033051;28;20480;-86
2022/03/01 01:51:07;;;;;;;16.98;9.02;;;;;;;;;;5055419;28;20028;-85
2022/03/01 01:53:33;;;;;;;16.10;9.13;;;;;;;;;;5068816;28;20021;-85
2022/03/01 01:55:59;;;;;;;15.00;8.70;;;;;;;;;;5051388;28;20047;-85
2022/03/01 01:58:25;;;;;;;16.10;8.77;;;;;;;;;;5069477;28;20366;-85
2022/03/01 02:00:51;;;;;;;13.93;7.57;;;;;;;;;;5070062;28;20032;-85
2022/03/01 02:06:21;;;;;;;14.10;8.40;;;;;;;;;;5079801;28;20091;-85
2022/03/01 02:08:47;;;;;;;16.85;8.80;;;;;;;;;;5080118;28;20005;-85
2022/03/01 02:14:17;;;;;;;15.70;8.32;;;;;;;;;;5059315;28;20032;-86
2022/03/01 02:16:43;;;;;;;14.27;8.00;;;;;;;;;;5041667;28;20064;-87
2022/03/01 02:19:13;;;;;;;12.35;7.70;;;;;;;;;;5041285;28;20025;-85
2022/03/01 02:21:46;;;;;;;15.07;8.30;;;;;;;;;;5059172;28;20044;-86
2022/03/01 02:24:12;;;;;;;11.15;7.45;;;;;;;;;;5058649;28;20024;-86
2022/03/01 02:26:38;;;;;;;12.80;7.97;;;;;;;;;;5040754;28;20033;-87
2022/03/01 02:29:04;;;;;;;13.93;8.40;;;;;;;;;;5058462;28;20021;-86
2022/03/01 02:31:30;;;;;;;12.20;7.88;;;;;;;;;;5059097;28;20111;-86
2022/03/01 02:33:57;;;;;;;13.75;8.32;;;;;;;;;;5042567;28;20036;-86
2022/03/01 02:36:24;;;;;;;14.70;8.07;;;;;;;;;;5039982;28;20095;-86
2022/03/01 02:38:50;;;;;;;14.23;8.40;;;;;;;;;;5039246;28;20025;-84
2022/03/01 02:41:16;;;;;;;13.55;8.48;;;;;;;;;;5043012;28;20033;-84
2022/03/01 02:43:42;;;;;;;14.52;9.05;;;;;;;;;;5048524;28;20037;-83
2022/03/01 02:46:08;;;;;;;14.23;7.97;;;;;;;;;;5021923;28;20029;-83
2022/03/01 02:48:34;;;;;;;15.57;8.15;;;;;;;;;;5039210;28;20163;-85
2022/03/01 02:51:00;;;;;;;17.63;9.45;;;;;;;;;;5017720;28;20460;-85
2022/03/01 02:53:26;;;;;;;13.68;8.55;;;;;;;;;;5017004;28;20049;-85
2022/03/01 02:55:52;;;;;;;16.77;9.82;;;;;;;;;;5034889;28;20397;-86
2022/03/01 02:58:18;;;;;;;14.57;8.77;;;;;;;;;;5016957;28;20029;-85
2022/03/01 03:00:44;;;;;;;15.70;8.70;;;;;;;;;;5035034;28;20545;-85
2022/03/01 03:03:13;;;;;;;15.25;8.27;;;;;;;;;;5034573;28;20030;-86
2022/03/01 03:05:39;;;;;;;14.43;8.52;;;;;;;;;;5034661;28;20033;-86
2022/03/01 03:08:07;;;;;;;15.07;8.35;;;;;;;;;;5034761;28;20116;-85
2022/03/01 03:10:33;;;;;;;14.70;8.60;;;;;;;;;;5037376;28;20025;-83
2022/03/01 03:13:00;;;;;;;13.23;8.55;;;;;;;;;;5021016;28;20044;-83
2022/03/01 03:15:27;;;;;;;16.13;9.43;;;;;;;;;;5040601;28;20025;-85
2022/03/01 03:17:53;;;;;;;15.05;9.27;;;;;;;;;;5036588;28;20021;-85
2022/03/01 03:20:19;;;;;;;15.63;8.93;;;;;;;;;;5017981;28;20025;-85
2022/03/01 03:22:45;;;;;;;14.95;9.23;;;;;;;;;;5034594;28;20029;-85
2022/03/01 03:25:11;;;;;;;15.20;8.65;;;;;;;;;;5035279;28;20033;-83
2022/03/01 03:27:37;;;;;;;14.20;8.55;;;;;;;;;;5038726;28;20093;-83
2022/03/01 03:30:04;;;;;;;13.52;8.27;;;;;;;;;;5038498;28;20022;-83
2022/03/01 03:32:31;;;;;;;15.18;8.40;;;;;;;;;;5038231;28;20029;-83
2022/03/01 03:34:57;;;;;;;12.65;7.35;;;;;;;;;;5038259;28;20057;-83
2022/03/01 03:37:23;;;;;;;13.55;9.20;;;;;;;;;;5033215;28;20574;-83
2022/03/01 03:39:49;;;;;;;14.35;8.15;;;;;;;;;;5037710;28;20081;-83
2022/03/01 03:42:15;;;;;;;17.95;8.85;;;;;;;;;;5037161;28;20045;-84
2022/03/01 03:44:42;;;;;;;16.35;8.93;;;;;;;;;;5037852;28;20028;-83
2022/03/01 03:47:11;;;;;;;14.10;7.95;;;;;;;;;;5031309;28;20025;-83
2022/03/01 03:49:37;;;;;;;14.98;8.07;;;;;;;;;;5039218;28;20044;-85
2022/03/01 03:52:04;;;;;;;14.75;7.93;;;;;;;;;;5045424;28;20043;-83
2022/03/01 03:54:30;;;;;;;13.93;8.48;;;;;;;;;;5044714;28;20025;-84
2022/03/01 03:56:56;;;;;;;16.67;8.55;;;;;;;;;;5037946;28;20463;-83
2022/03/01 03:59:22;;;;;;;15.82;9.10;;;;;;;;;;5045638;28;20175;-83
2022/03/01 04:01:48;;;;;;;13.10;7.80;;;;;;;;;;5041841;28;20417;-83
2022/03/01 04:04:15;;;;;;;15.57;8.35;;;;;;;;;;5040927;28;20493;-84
2022/03/01 04:06:41;;;;;;;13.23;7.60;;;;;;;;;;5023802;28;20029;-84
2022/03/01 04:09:07;;;;;;;18.55;8.95;;;;;;;;;;5025543;28;20041;-84
2022/03/01 04:11:33;;;;;;;13.48;8.07;;;;;;;;;;5024983;28;20070;-84
2022/03/01 04:14:00;;;;;;;14.57;7.72;;;;;;;;;;5042832;28;20030;-83
2022/03/01 04:16:27;;;;;;;14.82;7.95;;;;;;;;;;5031911;28;20036;-83
2022/03/01 04:18:54;;;;;;;14.60;8.55;;;;;;;;;;5034419;28;20053;-83
2022/03/01 04:21:20;;;;;;;12.00;7.95;;;;;;;;;;5044891;28;20025;-84
2022/03/01 04:23:46;;;;;;;13.75;8.55;;;;;;;;;;5044062;28;20100;-84
2022/03/01 04:26:12;;;;;;;14.68;8.40;;;;;;;;;;5042648;28;20026;-84
2022/03/01 04:28:38;;;;;;;13.82;8.35;;;;;;;;;;5042014;28;20128;-84
2022/03/01 04:31:05;;;;;;;15.57;8.85;;;;;;;;;;5044039;28;20017;-84
2022/03/01 04:33:31;;;;;;;14.32;8.65;;;;;;;;;;5025227;28;20024;-84
2022/03/01 04:36:02;;;;;;;14.50;8.45;;;;;;;;;;5048675;28;20056;-83
2022/03/01 04:38:28;;;;;;;12.80;8.05;;;;;;;;;;5062985;28;20036;-83
2022/03/01 04:40:55;;;;;;;15.10;8.20;;;;;;;;;;5063408;28;20503;-83
2022/03/01 04:43:21;;;;;;;15.23;8.82;;;;;;;;;;5055668;28;20508;-83
2022/03/01 04:45:47;;;;;;;28.58;15.15;;;;;;;;;;5056140;28;20157;-83
2022/03/01 04:48:13;;;;;;;19.33;10.60;;;;;;;;;;5038265;28;20029;-83
2022/03/01 04:50:39;;;;;;;15.30;9.13;;;;;;;;;;5055386;28;20568;-83
2022/03/01 04:53:05;;;;;;;14.27;8.40;;;;;;;;;;5052280;28;20025;-83
2022/03/01 04:55:32;;;;;;;19.83;11.27;;;;;;;;;;5071305;28;20028;-85
2022/03/01 04:58:00;;;;;;;24.65;13.63;;;;;;;;;;5059791;28;20029;-85
2022/03/01 05:00:26;;;;;;;24.35;12.40;;;;;;;;;;5058362;28;20607;-85
2022/03/01 05:02:52;;;;;;;26.27;15.73;;;;;;;;;;5039482;28;20033;-84
2022/03/01 05:05:18;;;;;;;29.17;14.23;;;;;;;;;;5038611;28;20029;-85
2022/03/01 05:07:46;;;;;;;27.20;15.75;;;;;;;;;;5039437;28;20611;-85
2022/03/01 05:10:13;;;;;;;21.70;12.70;;;;;;;;;;5051195;28;20059;-86
2022/03/01 05:12:46;;;;;;;18.50;9.75;;;;;;;;;;5066890;28;20037;-86
2022/03/01 05:15:12;;;;;;;14.30;8.82;;;;;;;;;;5065368;28;20092;-86
2022/03/01 05:17:38;;;;;;;14.88;8.82;;;;;;;;;;5036208;28;20061;-85
2022/03/01 05:20:05;;;;;;;13.48;8.80;;;;;;;;;;5067295;28;20034;-86
2022/03/01 05:22:31;;;;;;;16.38;8.38;;;;;;;;;;5050101;28;20036;-85
2022/03/01 05:24:57;;;;;;;14.82;8.98;;;;;;;;;;5066032;28;20068;-86
2022/03/01 05:27:23;;;;;;;16.73;10.02;;;;;;;;;;5054346;28;20021;-85
2022/03/01 05:29:50;;;;;;;13.57;9.43;;;;;;;;;;5066590;28;20110;-85
2022/03/01 05:32:17;;;;;;;18.25;10.57;;;;;;;;;;5062094;28;20029;-84
2022/03/01 05:34:43;;;;;;;17.40;10.13;;;;;;;;;;5036700;28;20025;-85
2022/03/01 05:37:09;;;;;;;14.82;8.82;;;;;;;;;;5037903;28;20046;-86
2022/03/01 05:39:36;;;;;;;12.70;8.95;;;;;;;;;;5014570;28;20433;-86
2022/03/01 05:42:02;;;;;;;14.90;9.32;;;;;;;;;;5015462;28;20021;-86
2022/03/01 05:44:28;;;;;;;18.73;8.90;;;;;;;;;;5036012;28;20116;-84
2022/03/01 05:49:58;;;;;;;19.30;11.50;;;;;;;;;;5033120;28;20032;-86
2022/03/01 05:52:24;;;;;;;20.83;10.75;;;;;;;;;;5015328;28;20032;-86
2022/03/01 05:54:50;;;;;;;28.05;12.90;;;;;;;;;;5004211;28;20408;-86
2022/03/01 05:57:16;;;;;;;21.92;12.30;;;;;;;;;;5015698;28;20025;-85
2022/03/01 05:59:42;;;;;;;19.67;11.40;;;;;;;;;;5015444;28;20029;-86
2022/03/01 06:02:09;;;;;;;20.90;11.80;;;;;;;;;;5018051;28;20052;-84
2022/03/01 06:04:35;;;;;;;19.95;10.98;;;;;;;;;;5038507;28;20026;-84
2022/03/01 06:07:01;;;;;;;16.17;8.90;;;;;;;;;;5020632;28;20519;-84
2022/03/01 06:09:27;;;;;;;17.20;9.70;;;;;;;;;;5033808;28;20026;-85
2022/03/01 06:11:53;;;;;;;14.95;8.52;;;;;;;;;;5014034;28;20017;-86
2022/03/01 06:14:19;;;;;;;17.73;9.85;;;;;;;;;;5031409;28;20071;-86
2022/03/01 06:16:45;;;;;;;17.08;10.38;;;;;;;;;;5030745;28;20025;-85
2022/03/01 06:19:11;;;;;;;17.17;10.77;;;;;;;;;;5036520;28;20026;-85
2022/03/01 06:21:37;;;;;;;28.67;15.13;;;;;;;;;;5048036;28;20021;-85
2022/03/01 06:24:06;;;;;;;21.67;13.70;;;;;;;;;;5026485;28;20148;-84
2022/03/01 06:26:34;;;;;;;23.05;13.65;;;;;;;;;;5037903;28;20029;-84
2022/03/01 06:29:00;;;;;;;28.02;12.93;;;;;;;;;;5037748;28;20019;-84
2022/03/01 06:31:26;;;;;;;22.38;12.98;;;;;;;;;;5045314;28;20041;-85
2022/03/01 06:33:52;;;;;;;22.33;12.55;;;;;;;;;;5025877;28;20052;-85
2022/03/01 06:36:18;;;;;;;15.20;9.38;;;;;;;;;;5051322;28;20041;-85
2022/03/01 06:38:44;;;;;;;16.60;10.40;;;;;;;;;;5045008;28;20631;-83
2022/03/01 06:41:10;;;;;;;15.23;9.80;;;;;;;;;;5044119;28;20116;-85
2022/03/01 06:43:36;;;;;;;18.13;9.10;;;;;;;;;;5043942;28;20032;-86
2022/03/01 06:46:02;;;;;;;16.60;10.00;;;;;;;;;;5061323;28;20033;-85
2022/03/01 06:51:32;;;;;;;14.23;8.80;;;;;;;;;;5045135;28;20087;-85
2022/03/01 06:53:58;;;;;;;13.20;8.93;;;;;;;;;;5026690;28;20021;-85
2022/03/01 06:56:24;;;;;;;17.50;9.25;;;;;;;;;;5043197;28;20024;-86
2022/03/01 06:58:50;;;;;;;16.83;9.70;;;;;;;;;;5039882;28;20469;-87
2022/03/01 07:01:16;;;;;;;16.80;9.93;;;;;;;;;;5056032;28;20058;-85
2022/03/01 07:03:42;;;;;;;14.73;10.55;;;;;;;;;;5036598;28;20400;-86
2022/03/01 07:06:09;;;;;;;14.93;9.50;;;;;;;;;;5037274;28;20119;-86
2022/03/01 07:08:35;;;;;;;17.50;9.95;;;;;;;;;;5054503;28;20393;-86
2022/03/01 07:11:01;;;;;;;13.80;9.23;;;;;;;;;;5037999;28;20035;-86
2022/03/01 07:13:27;;;;;;;18.02;10.60;;;;;;;;;;5054311;28;20021;-85
2022/03/01 07:15:53;;;;;;;17.67;9.73;;;;;;;;;;5037328;28;20485;-85
2022/03/01 07:18:19;;;;;;;15.57;9.07;;;;;;;;;;5037068;28;20079;-85
2022/03/01 07:20:45;;;;;;;16.85;9.10;;;;;;;;;;5048671;28;20461;-85
2022/03/01 07:23:11;;;;;;;14.77;9.45;;;;;;;;;;5017803;28;20033;-85
2022/03/01 07:25:38;;;;;;;15.02;10.13;;;;;;;;;;5016836;28;20033;-85
2022/03/01 07:28:04;;;;;;;14.75;9.18;;;;;;;;;;5029596;28;20033;-85
2022/03/01 07:30:30;;;;;;;16.02;9.95;;;;;;;;;;5037305;28;20040;-86
2022/03/01 07:32:57;;;;;;;17.48;9.52;;;;;;;;;;5038114;28;20474;-84
2022/03/01 07:35:23;;;;;;;17.75;10.38;;;;;;;;;;5057675;28;20052;-84
2022/03/01 07:37:50;;;;;;;15.35;10.13;;;;;;;;;;5058323;28;20098;-84
2022/03/01 07:40:17;;;;;;;16.10;10.05;;;;;;;;;;5060246;28;20025;-86
2022/03/01 07:42:43;;;;;;;21.52;11.15;;;;;;;;;;5039216;28;20150;-86
2022/03/01 07:45:10;;;;;;;14.45;9.32;;;;;;;;;;5037666;28;20139;-86
2022/03/01 07:47:35;;;;;;;14.95;10.25;;;;;;;;;;5056327;28;20396;-87
2022/03/01 07:50:02;;;;;;;18.52;10.98;;;;;;;;;;5038176;28;20025;-87
2022/03/01 07:52:27;;;;;;;20.00;11.27;;;;;;;;;;5053756;28;20025;-86
2022/03/01 07:54:54;;;;;;;21.15;13.07;;;;;;;;;;5043894;28;20028;-87
2022/03/01 07:57:20;;;;;;;19.85;12.63;;;;;;;;;;5041809;28;20538;-85
2022/03/01 07:59:46;;;;;;;20.58;12.80;;;;;;;;;;5043450;28;20013;-86
2022/03/01 08:02:12;;;;;;;19.77;12.18;;;;;;;;;;5043206;28;20028;-85
2022/03/01 08:04:41;;;;;;;19.27;11.70;;;;;;;;;;5042129;28;20027;-84
2022/03/01 08:07:08;;;;;;;17.95;11.65;;;;;;;;;;5052115;28;20029;-84
2022/03/01 08:09:34;;;;;;;17.30;13.05;;;;;;;;;;5054435;28;20056;-86
2022/03/01 08:12:02;;;;;;;17.58;13.10;;;;;;;;;;5042405;28;20021;-86
2022/03/01 08:14:30;;;;;;;17.60;12.10;;;;;;;;;;5040368;28;20116;-85
2022/03/01 08:16:56;;;;;;;20.38;12.73;;;;;;;;;;5058681;28;20127;-87
2022/03/01 08:19:22;;;;;;;17.92;11.80;;;;;;;;;;5058408;28;20017;-85
2022/03/01 08:21:48;;;;;;;17.58;12.13;;;;;;;;;;5040664;28;20044;-86
2022/03/01 08:24:14;;;;;;;18.13;12.30;;;;;;;;;;5041205;28;20028;-86
2022/03/01 08:26:40;;;;;;;18.35;12.23;;;;;;;;;;5058330;28;20029;-86
2022/03/01 08:29:07;;;;;;;19.98;12.73;;;;;;;;;;5059298;28;20032;-85
2022/03/01 08:31:33;;;;;;;21.50;12.57;;;;;;;;;;5058545;28;20036;-85
2022/03/01 08:33:59;;;;;;;22.10;12.35;;;;;;;;;;5040721;28;20020;-84
2022/03/01 08:36:26;;;;;;;18.30;11.93;;;;;;;;;;5059184;28;20037;-86
2022/03/01 08:38:52;;;;;;;18.75;12.15;;;;;;;;;;5042701;28;20063;-87
2022/03/01 08:41:18;;;;;;;19.25;12.20;;;;;;;;;;5043018;28;20032;-85
2022/03/01 08:43:44;;;;;;;18.83;12.38;;;;;;;;;;5042120;28;20033;-85
2022/03/01 08:46:14;;;;;;;19.10;12.60;;;;;;;;;;5043932;28;20047;-87
2022/03/01 08:48:40;;;;;;;17.38;12.35;;;;;;;;;;5040853;28;20017;-87
2022/03/01 08:51:06;;;;;;;21.95;12.30;;;;;;;;;;5040404;28;20025;-86
2022/03/01 08:53:33;;;;;;;18.50;11.88;;;;;;;;;;5057555;28;20388;-83
2022/03/01 08:55:59;;;;;;;20.48;13.00;;;;;;;;;;5040972;28;20032;-85
2022/03/01 08:58:26;;;;;;;20.70;12.18;;;;;;;;;;5039216;28;20397;-84
2022/03/01 09:00:52;;;;;;;17.55;11.80;;;;;;;;;;5039475;28;20029;-86
2022/03/01 09:03:19;;;;;;;19.17;13.25;;;;;;;;;;5039399;28;20025;-86
2022/03/01 09:05:45;;;;;;;19.23;12.30;;;;;;;;;;5058874;28;20493;-86
2022/03/01 09:08:13;;;;;;;18.30;12.63;;;;;;;;;;5057438;28;20028;-86
2022/03/01 09:10:42;;;;;;;17.98;12.98;;;;;;;;;;5039148;28;20460;-85
2022/03/01 09:13:09;;;;;;;18.90;12.88;;;;;;;;;;5039551;28;20013;-85
2022/03/01 09:15:35;;;;;;;19.15;12.90;;;;;;;;;;5058863;28;20099;-85
2022/03/01 09:18:03;;;;;;;20.33;12.20;;;;;;;;;;5067942;28;20035;-85
2022/03/01 09:20:30;;;;;;;19.10;12.40;;;;;;;;;;5058137;28;20025;-86
2022/03/01 09:22:56;;;;;;;19.40;12.55;;;;;;;;;;5058852;28;20036;-85
2022/03/01 09:25:22;;;;;;;21.85;15.40;;;;;;;;;;5059119;28;20040;-87
2022/03/01 09:27:48;;;;;;;19.90;12.40;;;;;;;;;;5046064;28;20029;-85
2022/03/01 09:30:14;;;;;;;20.88;12.20;;;;;;;;;;5041443;28;20025;-85
2022/03/01 09:32:40;;;;;;;18.38;12.32;;;;;;;;;;5061715;28;20021;-85
2022/03/01 09:35:07;;;;;;;18.83;12.07;;;;;;;;;;5042127;28;20437;-86
2022/03/01 09:37:33;;;;;;;19.88;12.57;;;;;;;;;;5040490;28;20048;-86
2022/03/01 09:40:06;;;;;;;17.90;12.10;;;;;;;;;;5056708;28;20058;-86
2022/03/01 09:42:32;;;;;;;19.33;12.40;;;;;;;;;;5059425;28;20100;-85
2022/03/01 09:44:59;;;;;;;18.48;12.18;;;;;;;;;;5058447;28;20100;-84
2022/03/01 09:47:25;;;;;;;16.92;12.02;;;;;;;;;;5040490;28;20025;-85
2022/03/01 09:49:51;;;;;;;19.48;12.70;;;;;;;;;;5060092;28;20029;-85
2022/03/01 09:52:18;;;;;;;20.35;12.43;;;;;;;;;;5040557;28;20040;-85
2022/03/01 09:54:45;;;;;;;17.90;12.90;;;;;;;;;;5058714;28;20072;-86
2022/03/01 09:57:14;;;;;;;20.60;13.43;;;;;;;;;;5040930;28;20064;-85
2022/03/01 09:59:41;;;;;;;19.30;12.15;;;;;;;;;;5057019;28;20469;-85
2022/03/01 10:02:07;;;;;;;23.77;12.73;;;;;;;;;;5039561;28;20068;-85
2022/03/01 10:04:37;;;;;;;20.55;14.15;;;;;;;;;;5038534;28;20036;-85
2022/03/01 10:07:03;;;;;;;19.63;13.13;;;;;;;;;;5038695;28;20513;-84
2022/03/01 10:09:30;;;;;;;20.38;13.55;;;;;;;;;;5057759;28;20021;-86
2022/03/01 10:12:03;;;;;;;18.50;12.35;;;;;;;;;;5039026;28;20051;-86
2022/03/01 10:14:30;;;;;;;20.70;12.80;;;;;;;;;;5057713;28;20127;-86
2022/03/01 10:16:56;;;;;;;18.65;12.77;;;;;;;;;;5059652;28;20056;-85
2022/03/01 10:19:22;;;;;;;20.98;13.02;;;;;;;;;;5059295;28;20075;-86
2022/03/01 10:21:59;;;;;;;20.45;14.23;;;;;;;;;;5037693;28;20485;-85
2022/03/01 10:24:26;;;;;;;20.15;14.23;;;;;;;;;;5058283;28;20425;-85
2022/03/01 10:26:56;;;;;;;22.55;13.40;;;;;;;;;;5042153;28;20025;-87
2022/03/01 10:29:26;;;;;;;22.55;14.15;;;;;;;;;;5042777;28;20021;-85
2022/03/01 10:31:52;;;;;;;22.77;14.30;;;;;;;;;;5059181;28;20079;-85
2022/03/01 10:34:19;;;;;;;21.50;14.40;;;;;;;;;;5042255;28;20457;-84
2022/03/01 10:36:49;;;;;;;21.75;14.18;;;;;;;;;;5060361;28;20103;-86
2022/03/01 10:39:19;;;;;;;24.60;14.23;;;;;;;;;;5059922;28;20036;-85
2022/03/01 10:41:46;;;;;;;20.33;14.02;;;;;;;;;;5059800;28;20025;-85
2022/03/01 10:44:22;;;;;;;21.25;14.50;;;;;;;;;;5059698;28;20488;-84
2022/03/01 10:46:53;;;;;;;19.05;14.25;;;;;;;;;;5060651;28;20036;-85
2022/03/01 10:49:37;;;;;;;21.45;14.55;;;;;;;;;;5058857;28;20017;-84
2022/03/01 10:52:06;;;;;;;20.33;13.45;;;;;;;;;;5059104;28;20017;-85
2022/03/01 10:54:32;;;;;;;20.77;15.48;;;;;;;;;;5041533;28;20032;-86
2022/03/01 10:56:59;;;;;;;20.38;15.07;;;;;;;;;;5038569;28;20401;-84
2022/03/01 10:59:27;;;;;;;20.48;14.65;;;;;;;;;;5041503;28;20060;-85
2022/03/01 11:01:53;;;;;;;24.35;16.17;;;;;;;;;;5049138;28;20037;-86
2022/03/01 11:04:24;;;;;;;22.75;14.57;;;;;;;;;;5058315;28;20131;-85
2022/03/01 11:06:50;;;;;;;20.60;13.63;;;;;;;;;;5058100;28;20578;-86
2022/03/01 11:09:17;;;;;;;21.10;14.23;;;;;;;;;;5057818;28;20104;-85
2022/03/01 11:11:44;;;;;;;22.52;14.80;;;;;;;;;;5040454;28;20021;-86
2022/03/01 11:14:11;;;;;;;18.67;13.32;;;;;;;;;;5057435;28;20112;-85
2022/03/01 11:16:48;;;;;;;19.40;13.73;;;;;;;;;;5040506;28;20032;-84
2022/03/01 11:19:41;;;;;;;16.70;11.65;;;;;;;;;;5041772;28;20036;-84
2022/03/01 11:22:16;;;;;;;16.83;11.75;;;;;;;;;;5062627;28;20082;-85
2022/03/01 11:24:43;;;;;;;22.20;13.93;;;;;;;;;;5047538;28;20033;-85
2022/03/01 11:27:09;;;;;;;17.05;11.80;;;;;;;;;;5061125;28;20036;-85
2022/03/01 11:29:42;;;;;;;16.48;11.23;;;;;;;;;;5060575;28;20032;-84
2022/03/01 11:32:15;;;;;;;18.60;10.63;;;;;;;;;;5042371;28;20025;-86
2022/03/01 11:34:42;;;;;;;18.40;11.82;;;;;;;;;;5061645;28;20026;-85
2022/03/01 11:37:18;;;;;;;17.02;10.75;;;;;;;;;;5060195;28;20092;-85
2022/03/01 11:39:44;;;;;;;16.27;10.32;;;;;;;;;;5060939;28;20060;-85
2022/03/01 11:42:17;;;;;;;14.95;10.30;;;;;;;;;;5059818;28;20075;-85
2022/03/01 11:44:48;;;;;;;16.33;10.95;;;;;;;;;;5043730;28;20021;-85
2022/03/01 11:47:23;;;;;;;15.82;11.55;;;;;;;;;;5061528;28;20037;-84
2022/03/01 11:49:49;;;;;;;17.67;11.43;;;;;;;;;;5048416;28;20029;-86
2022/03/01 11:52:19;;;;;;;16.50;11.30;;;;;;;;;;5046050;28;20080;-85
2022/03/01 11:54:47;;;;;;;15.85;11.48;;;;;;;;;;5064671;28;20032;-84
2022/03/01 11:57:14;;;;;;;15.18;10.52;;;;;;;;;;5046648;28;20028;-85
2022/03/01 11:59:40;;;;;;;19.08;11.65;;;;;;;;;;5047203;28;20052;-84
2022/03/01 12:02:07;;;;;;;16.08;11.30;;;;;;;;;;5045497;28;20406;-83
2022/03/01 12:04:34;;;;;;;16.77;11.80;;;;;;;;;;5047924;28;20017;-86
2022/03/01 12:07:00;;;;;;;16.63;10.93;;;;;;;;;;5047352;28;20378;-85
2022/03/01 12:09:28;;;;;;;16.73;11.07;;;;;;;;;;5062580;28;20041;-88
2022/03/01 12:12:04;;;;;;;16.90;11.10;;;;;;;;;;5046915;28;20098;-84
2022/03/01 12:14:34;;;;;;;18.65;11.65;;;;;;;;;;5046978;28;20469;-84
2022/03/01 12:17:01;;;;;;;17.75;12.73;;;;;;;;;;5047902;28;20025;-85
2022/03/01 12:19:30;;;;;;;17.50;11.43;;;;;;;;;;5046121;28;20032;-84
2022/03/01 12:21:58;;;;;;;14.10;9.85;;;;;;;;;;5044114;28;20127;-84
2022/03/01 12:24:25;;;;;;;11.65;8.50;;;;;;;;;;5044648;28;20021;-85
2022/03/01 12:26:52;;;;;;;13.95;8.95;;;;;;;;;;5062859;28;20032;-85
2022/03/01 12:29:19;;;;;;;16.20;10.55;;;;;;;;;;5044918;28;20053;-85
2022/03/01 12:31:55;;;;;;;13.82;9.68;;;;;;;;;;5045343;28;20017;-84
2022/03/01 12:34:23;;;;;;;14.65;10.15;;;;;;;;;;5063758;28;20025;-84
2022/03/01 12:36:49;;;;;;;15.00;10.85;;;;;;;;;;5045218;28;20045;-86
2022/03/01 12:39:16;;;;;;;15.88;11.20;;;;;;;;;;5042981;28;20033;-85
2022/03/01 12:41:43;;;;;;;16.33;11.48;;;;;;;;;;5045372;28;20032;-83
2022/03/01 12:44:11;;;;;;;16.45;11.10;;;;;;;;;;5045403;28;20120;-83
2022/03/01 12:46:38;;;;;;;18.27;11.43;;;;;;;;;;5044346;28;20040;-86
2022/03/01 12:49:08;;;;;;;18.13;12.50;;;;;;;;;;5045569;28;20112;-83
2022/03/01 12:51:35;;;;;;;19.73;12.23;;;;;;;;;;5045730;28;20355;-85
2022/03/01 12:54:05;;;;;;;19.65;12.20;;;;;;;;;;5036651;28;20053;-84
2022/03/01 12:56:33;;;;;;;16.85;11.57;;;;;;;;;;5056928;28;20032;-85
2022/03/01 12:59:04;;;;;;;15.55;11.05;;;;;;;;;;5053580;28;20036;-85
2022/03/01 13:01:30;;;;;;;19.92;12.48;;;;;;;;;;5057101;28;20088;-85
2022/03/01 13:03:56;;;;;;;18.70;12.50;;;;;;;;;;5058335;28;20083;-84
2022/03/01 13:06:22;;;;;;;17.90;12.02;;;;;;;;;;5059418;28;20033;-85
2022/03/01 13:08:53;;;;;;;18.00;11.90;;;;;;;;;;5059469;28;20541;-82
2022/03/01 13:11:20;;;;;;;16.92;11.40;;;;;;;;;;5041295;28;20021;-83
2022/03/01 13:13:51;;;;;;;17.65;11.60;;;;;;;;;;5041319;28;20025;-85
2022/03/01 13:16:21;;;;;;;17.58;11.52;;;;;;;;;;5040532;28;20048;-84
2022/03/01 13:18:52;;;;;;;20.40;12.02;;;;;;;;;;5052704;28;20093;-87
2022/03/01 13:21:28;;;;;;;16.95;10.88;;;;;;;;;;5057956;28;20028;-85
2022/03/01 13:23:55;;;;;;;17.67;10.90;;;;;;;;;;5056160;28;20029;-83
2022/03/01 13:26:21;;;;;;;16.88;11.50;;;;;;;;;;5039198;28;20159;-84
2022/03/01 13:28:48;;;;;;;17.27;11.13;;;;;;;;;;5043269;28;20125;-83
2022/03/01 13:31:25;;;;;;;17.73;11.40;;;;;;;;;;5048644;28;20088;-84
2022/03/01 13:33:55;;;;;;;15.77;10.18;;;;;;;;;;5045254;28;20088;-85
2022/03/01 13:36:21;;;;;;;15.35;10.65;;;;;;;;;;5063752;28;20059;-82
2022/03/01 13:39:01;;;;;;;15.23;10.85;;;;;;;;;;5039362;28;20091;-84
2022/03/01 13:41:30;;;;;;;15.32;10.77;;;;;;;;;;5053127;28;20138;-83
2022/03/01 13:43:56;;;;;;;15.98;9.38;;;;;;;;;;5039300;28;20021;-84
2022/03/01 13:46:22;;;;;;;15.63;9.95;;;;;;;;;;5059293;28;20025;-84
2022/03/01 13:48:48;;;;;;;19.08;11.10;;;;;;;;;;5053642;28;20029;-84
2022/03/01 13:51:14;;;;;;;13.00;9.10;;;;;;;;;;5037215;28;20463;-83
2022/03/01 13:53:40;;;;;;;15.65;10.85;;;;;;;;;;5036995;28;20443;-85
2022/03/01 13:56:06;;;;;;;16.27;10.60;;;;;;;;;;5037715;28;20032;-83
2022/03/01 13:58:32;;;;;;;16.85;10.40;;;;;;;;;;5037945;28;20448;-83
2022/03/01 14:01:03;;;;;;;13.80;10.25;;;;;;;;;;5059868;28;20024;-85
2022/03/01 14:03:31;;;;;;;14.18;9.63;;;;;;;;;;5044145;28;20072;-84
2022/03/01 14:05:58;;;;;;;14.60;9.55;;;;;;;;;;5040784;28;20029;-85
2022/03/01 14:08:25;;;;;;;18.83;12.77;;;;;;;;;;5058247;28;20017;-84
2022/03/01 14:11:00;;;;;;;15.02;9.80;;;;;;;;;;5039834;28;20025;-83
2022/03/01 14:13:33;;;;;;;15.15;10.15;;;;;;;;;;5039582;28;20503;-83
2022/03/01 14:16:04;;;;;;;16.65;11.13;;;;;;;;;;5040580;28;20048;-84
2022/03/01 14:18:35;;;;;;;16.10;10.77;;;;;;;;;;5037741;28;20033;-84
2022/03/01 14:21:01;;;;;;;14.57;10.43;;;;;;;;;;5040297;28;20037;-83
2022/03/01 14:23:27;;;;;;;16.25;10.65;;;;;;;;;;5041340;28;20061;-84
2022/03/01 14:25:53;;;;;;;14.48;10.25;;;;;;;;;;5057034;28;20029;-88
2022/03/01 14:28:19;;;;;;;15.32;10.23;;;;;;;;;;5059775;28;20021;-83
2022/03/01 14:30:45;;;;;;;15.30;10.30;;;;;;;;;;5060614;28;20025;-83
2022/03/01 14:33:11;;;;;;;19.75;11.60;;;;;;;;;;5063589;28;20091;-85
2022/03/01 14:35:38;;;;;;;14.77;10.18;;;;;;;;;;5073339;28;20047;-83
2022/03/01 14:38:05;;;;;;;15.65;9.40;;;;;;;;;;5074987;28;20081;-84